createdAt,value
2023-07-27T00:00:25.391Z,32.83
2023-07-27T00:02:52.230Z,29.88
2023-07-27T00:05:19.192Z,32.63
2023-07-27T00:07:46.015Z,26.70
2023-07-27T00:10:12.850Z,31.77
2023-07-27T00:12:39.646Z,29.77
2023-07-27T00:15:07.294Z,29.63
2023-07-27T00:17:34.137Z,29.75
2023-07-27T00:20:00.917Z,31.33
2023-07-27T00:22:27.745Z,31.20
2023-07-27T00:24:54.844Z,32.13
2023-07-27T00:27:21.608Z,34.17
2023-07-27T00:29:48.434Z,29.42
2023-07-27T00:32:15.218Z,27.60
2023-07-27T00:34:42.809Z,29.48
2023-07-27T00:37:09.637Z,26.50
2023-07-27T00:39:36.745Z,30.45
2023-07-27T00:42:03.618Z,26.20
2023-07-27T00:44:30.422Z,32.35
2023-07-27T00:46:57.344Z,30.80
2023-07-27T00:49:24.244Z,31.60
2023-07-27T00:51:51.210Z,27.70
2023-07-27T00:54:18.252Z,28.77
2023-07-27T00:56:45.195Z,29.27
2023-07-27T00:59:12.166Z,29.80
2023-07-27T01:05:46.157Z,29.45
2023-07-27T01:08:13.028Z,29.05
2023-07-27T01:10:59.932Z,30.05
2023-07-27T01:13:47.478Z,31.13
2023-07-27T01:16:20.774Z,32.50
2023-07-27T01:19:28.874Z,32.80
2023-07-27T01:22:34.111Z,30.98
2023-07-27T01:25:44.548Z,28.15
2023-07-27T01:28:14.831Z,28.00
2023-07-27T01:30:52.054Z,29.52
2023-07-27T01:33:29.683Z,32.97
2023-07-27T01:36:07.756Z,29.90
2023-07-27T01:38:37.662Z,30.15
2023-07-27T01:41:06.439Z,29.38
2023-07-27T01:43:34.022Z,29.65
2023-07-27T01:46:01.681Z,30.45
2023-07-27T01:48:28.859Z,30.30
2023-07-27T01:50:56.762Z,31.95
2023-07-27T01:53:26.178Z,30.17
2023-07-27T01:55:53.759Z,28.58
2023-07-27T01:58:22.033Z,29.63
2023-07-27T02:00:49.838Z,28.75
2023-07-27T02:03:17.208Z,30.33
2023-07-27T02:05:44.135Z,29.80
2023-07-27T02:08:10.965Z,30.35
2023-07-27T02:10:39.105Z,29.00
2023-07-27T02:13:11.977Z,30.27
2023-07-27T02:15:44.186Z,28.75
2023-07-27T02:18:20.758Z,29.88
2023-07-27T02:20:48.429Z,29.63
2023-07-27T02:23:15.786Z,30.95
2023-07-27T02:25:42.853Z,29.30
2023-07-27T02:28:11.817Z,30.27
2023-07-27T02:30:39.324Z,29.38
2023-07-27T02:33:06.411Z,29.30
2023-07-27T02:35:33.558Z,29.52
2023-07-27T02:38:00.825Z,30.55
2023-07-27T02:40:29.246Z,31.45
2023-07-27T02:42:56.558Z,27.42
2023-07-27T02:45:24.349Z,31.42
2023-07-27T02:47:51.659Z,28.92
2023-07-27T02:50:18.578Z,31.13
2023-07-27T02:52:57.723Z,29.67
2023-07-27T02:55:24.912Z,31.08
2023-07-27T02:57:52.220Z,31.10
2023-07-27T03:00:18.999Z,32.25
2023-07-27T03:02:48.724Z,31.88
2023-07-27T03:05:15.707Z,30.92
2023-07-27T03:07:42.550Z,29.45
2023-07-27T03:10:09.936Z,30.55
2023-07-27T03:12:36.707Z,31.17
2023-07-27T03:15:04.043Z,30.70
2023-07-27T03:17:30.850Z,30.83
2023-07-27T03:19:57.922Z,32.20
2023-07-27T03:22:24.783Z,32.08
2023-07-27T03:24:52.437Z,31.10
2023-07-27T03:27:19.244Z,36.35
2023-07-27T03:29:46.135Z,31.50
2023-07-27T03:32:13.898Z,31.88
2023-07-27T03:34:41.453Z,33.50
2023-07-27T03:37:08.337Z,31.70
2023-07-27T03:39:35.607Z,30.75
2023-07-27T03:42:02.886Z,30.33
2023-07-27T03:44:29.651Z,33.28
2023-07-27T03:46:56.516Z,31.27
2023-07-27T03:49:23.341Z,32.55
2023-07-27T03:51:50.108Z,28.48
2023-07-27T03:54:16.965Z,34.08
2023-07-27T03:56:44.216Z,32.13
2023-07-27T03:59:11.394Z,35.22
2023-07-27T04:01:38.290Z,31.38
2023-07-27T04:04:05.261Z,30.95
2023-07-27T04:06:32.385Z,31.60
2023-07-27T04:08:59.494Z,32.58
2023-07-27T04:11:26.274Z,33.97
2023-07-27T04:13:54.247Z,32.25
2023-07-27T04:16:21.174Z,34.83
2023-07-27T04:18:48.036Z,35.92
2023-07-27T04:21:14.827Z,36.50
2023-07-27T04:23:41.722Z,35.22
2023-07-27T04:26:11.204Z,32.63
2023-07-27T04:28:38.087Z,32.95
2023-07-27T04:31:04.959Z,33.13
2023-07-27T04:33:31.829Z,29.45
2023-07-27T04:36:01.856Z,30.25
2023-07-27T04:38:29.309Z,28.50
2023-07-27T04:40:56.144Z,29.10
2023-07-27T04:43:22.893Z,26.88
2023-07-27T04:45:49.885Z,29.10
2023-07-27T04:48:16.694Z,30.17
2023-07-27T04:50:43.550Z,27.30
2023-07-27T04:53:10.352Z,27.83
2023-07-27T04:55:37.146Z,30.10
2023-07-27T04:58:03.954Z,28.05
2023-07-27T05:00:31.229Z,28.60
2023-07-27T05:02:59.373Z,26.33
2023-07-27T05:05:26.297Z,29.45
2023-07-27T05:07:53.166Z,25.45
2023-07-27T05:10:19.984Z,27.88
2023-07-27T05:12:46.864Z,27.35
2023-07-27T05:15:13.727Z,27.40
2023-07-27T05:17:40.541Z,26.75
2023-07-27T05:20:07.771Z,27.75
2023-07-27T05:22:35.065Z,25.67
2023-07-27T05:25:01.909Z,29.27
2023-07-27T05:27:28.786Z,28.83
2023-07-27T05:29:55.650Z,28.30
2023-07-27T05:32:22.730Z,28.10
2023-07-27T05:34:49.819Z,28.48
2023-07-27T05:37:16.616Z,27.00
2023-07-27T05:39:43.796Z,29.73
2023-07-27T05:42:10.594Z,27.98
2023-07-27T05:44:37.435Z,29.98
2023-07-27T05:47:04.790Z,28.38
2023-07-27T05:49:31.993Z,28.80
2023-07-27T05:51:59.231Z,28.77
2023-07-27T05:54:26.683Z,27.75
2023-07-27T05:56:53.504Z,28.05
2023-07-27T05:59:20.304Z,28.58
2023-07-27T06:01:47.144Z,28.95
2023-07-27T06:04:14.082Z,31.23
2023-07-27T06:06:46.108Z,29.17
2023-07-27T06:09:13.361Z,27.10
2023-07-27T06:11:40.300Z,31.83
2023-07-27T06:14:07.250Z,29.08
2023-07-27T06:16:34.521Z,29.38
2023-07-27T06:19:01.609Z,27.83
2023-07-27T06:21:28.483Z,30.50
2023-07-27T06:23:55.255Z,27.27
2023-07-27T06:26:22.183Z,30.15
2023-07-27T06:28:49.054Z,26.95
2023-07-27T06:31:15.967Z,28.92
2023-07-27T06:33:42.835Z,27.50
2023-07-27T06:36:12.899Z,29.20
2023-07-27T06:38:40.275Z,29.35
2023-07-27T06:41:07.199Z,27.73
2023-07-27T06:43:33.961Z,26.17
2023-07-27T06:46:00.919Z,29.90
2023-07-27T06:48:27.991Z,29.73
2023-07-27T06:50:54.923Z,27.48
2023-07-27T06:53:21.726Z,30.00
2023-07-27T06:55:48.657Z,25.58
2023-07-27T06:58:15.487Z,27.00
2023-07-27T07:00:42.619Z,26.60
2023-07-27T07:03:09.946Z,27.85
2023-07-27T07:05:36.887Z,25.55
2023-07-27T07:08:04.057Z,26.67
2023-07-27T07:10:30.899Z,25.35
2023-07-27T07:12:57.902Z,26.58
2023-07-27T07:15:24.797Z,26.58
2023-07-27T07:17:52.101Z,23.73
2023-07-27T07:20:19.309Z,25.08
2023-07-27T07:22:46.266Z,25.15
2023-07-27T07:25:13.066Z,25.25
2023-07-27T07:27:39.886Z,24.80
2023-07-27T07:30:07.611Z,26.85
2023-07-27T07:32:37.183Z,25.20
2023-07-27T07:35:04.248Z,25.67
2023-07-27T07:37:31.219Z,27.60
2023-07-27T07:39:58.192Z,27.77
2023-07-27T07:42:24.968Z,28.13
2023-07-27T07:44:51.804Z,24.38
2023-07-27T07:47:18.805Z,27.88
2023-07-27T07:49:45.714Z,25.45
2023-07-27T07:52:14.640Z,25.70
2023-07-27T07:54:41.605Z,24.77
2023-07-27T07:57:08.494Z,24.17
2023-07-27T07:59:35.423Z,23.73
2023-07-27T08:02:02.411Z,25.65
2023-07-27T08:04:31.823Z,26.75
2023-07-27T08:06:58.758Z,26.70
2023-07-27T08:09:25.870Z,25.77
2023-07-27T08:11:53.598Z,24.70
2023-07-27T08:14:20.507Z,25.77
2023-07-27T08:16:47.911Z,26.52
2023-07-27T08:19:14.924Z,27.63
2023-07-27T08:21:42.109Z,24.80
2023-07-27T08:24:09.006Z,26.33
2023-07-27T08:26:36.774Z,26.15
2023-07-27T08:29:03.784Z,28.13
2023-07-27T08:31:30.580Z,26.42
2023-07-27T08:33:57.438Z,27.83
2023-07-27T08:36:24.376Z,24.38
2023-07-27T08:38:52.444Z,24.25
2023-07-27T08:41:19.405Z,26.92
2023-07-27T08:43:46.617Z,26.42
2023-07-27T08:46:14.147Z,25.13
2023-07-27T08:48:41.333Z,23.92
2023-07-27T08:51:08.377Z,23.00
2023-07-27T08:53:35.296Z,23.52
2023-07-27T08:56:02.874Z,24.63
2023-07-27T08:58:30.226Z,26.10
2023-07-27T09:00:57.451Z,25.10
2023-07-27T09:03:24.369Z,27.17
2023-07-27T09:06:01.787Z,25.40
2023-07-27T09:08:30.146Z,29.02
2023-07-27T09:11:20.644Z,29.50
2023-07-27T09:13:47.607Z,27.47
2023-07-27T09:16:14.738Z,25.33
2023-07-27T09:18:41.853Z,24.45
2023-07-27T09:21:10.528Z,26.85
2023-07-27T09:23:38.201Z,26.65
2023-07-27T09:26:07.077Z,26.95
2023-07-27T09:28:34.421Z,29.80
2023-07-27T09:31:04.008Z,28.13
2023-07-27T09:33:31.956Z,26.52
2023-07-27T09:35:58.757Z,30.13
2023-07-27T09:38:27.666Z,29.17
2023-07-27T09:40:54.909Z,27.75
2023-07-27T09:43:25.798Z,27.77
2023-07-27T09:46:00.341Z,32.05
2023-07-27T09:48:31.306Z,26.40
2023-07-27T09:51:03.214Z,29.55
2023-07-27T09:53:33.338Z,26.25
2023-07-27T09:56:00.957Z,30.00
2023-07-27T09:58:29.321Z,27.88
2023-07-27T10:00:56.141Z,27.90
2023-07-27T10:03:23.124Z,28.45
2023-07-27T10:05:50.207Z,28.38
2023-07-27T10:08:17.593Z,27.17
2023-07-27T10:10:45.870Z,28.38
2023-07-27T10:13:33.904Z,28.83
2023-07-27T10:16:02.538Z,25.85
2023-07-27T10:18:30.760Z,29.48
2023-07-27T10:21:19.244Z,25.95
2023-07-27T10:24:05.064Z,27.70
2023-07-27T10:26:54.027Z,28.02
2023-07-27T10:29:27.457Z,27.35
2023-07-27T10:32:08.246Z,25.00
2023-07-27T10:34:41.046Z,23.80
2023-07-27T10:37:15.575Z,25.55
2023-07-27T10:39:53.788Z,25.23
2023-07-27T10:42:28.730Z,25.70
2023-07-27T10:44:57.332Z,28.27
2023-07-27T10:47:28.608Z,27.73
2023-07-27T10:49:57.854Z,26.90
2023-07-27T10:52:38.033Z,27.13
2023-07-27T10:55:08.816Z,24.70
2023-07-27T10:57:36.915Z,26.88
2023-07-27T11:00:05.650Z,25.20
2023-07-27T11:02:34.499Z,24.08
2023-07-27T11:05:07.383Z,23.42
2023-07-27T11:07:36.275Z,26.90
2023-07-27T11:10:11.188Z,28.63
2023-07-27T11:12:56.039Z,25.77
2023-07-27T11:15:28.944Z,25.02
2023-07-27T11:17:58.191Z,25.00
2023-07-27T11:20:26.709Z,25.33
2023-07-27T11:22:56.267Z,26.10
2023-07-27T11:25:24.545Z,25.83
2023-07-27T11:27:53.644Z,26.75
2023-07-27T11:30:23.370Z,24.50
2023-07-27T11:32:58.323Z,27.35
2023-07-27T11:35:25.317Z,29.20
2023-07-27T11:37:52.074Z,27.02
2023-07-27T11:40:20.324Z,26.52
2023-07-27T11:42:47.287Z,27.70
2023-07-27T11:45:14.453Z,29.13
2023-07-27T11:47:41.760Z,26.33
2023-07-27T11:50:10.713Z,28.25
2023-07-27T11:52:41.459Z,25.02
2023-07-27T11:55:09.309Z,25.65
2023-07-27T11:57:36.252Z,25.63
2023-07-27T12:00:05.055Z,26.35
2023-07-27T12:02:42.791Z,27.55
2023-07-27T12:05:14.556Z,25.88
2023-07-27T12:10:17.670Z,25.70
2023-07-27T12:15:37.841Z,27.02
2023-07-27T12:18:07.460Z,27.98
2023-07-27T12:25:39.363Z,26.08
2023-07-27T12:30:43.260Z,26.67
2023-07-27T12:33:12.045Z,25.23
2023-07-27T12:35:39.744Z,24.27
2023-07-27T12:43:06.903Z,25.15
2023-07-27T12:45:33.874Z,26.40
2023-07-27T12:48:00.857Z,25.77
2023-07-27T12:50:28.401Z,30.42
2023-07-27T12:52:55.317Z,25.35
2023-07-27T12:55:22.294Z,25.10
2023-07-27T12:57:49.183Z,27.15
2023-07-27T13:00:17.689Z,27.13
2023-07-27T13:02:44.930Z,27.00
2023-07-27T13:05:16.453Z,27.30
2023-07-27T13:07:46.363Z,27.70
2023-07-27T13:10:14.689Z,27.05
2023-07-27T13:12:41.674Z,28.73
2023-07-27T13:15:09.119Z,27.42
2023-07-27T13:17:37.870Z,27.95
2023-07-27T13:20:21.413Z,27.70
2023-07-27T13:22:48.219Z,27.10
2023-07-27T13:25:15.114Z,25.88
2023-07-27T13:27:41.942Z,27.05
2023-07-27T13:30:09.404Z,28.20
2023-07-27T13:32:36.197Z,26.55
2023-07-27T13:35:03.166Z,25.95
2023-07-27T13:37:32.357Z,27.95
2023-07-27T13:39:59.201Z,25.38
2023-07-27T13:42:26.531Z,27.30
2023-07-27T13:44:53.598Z,27.52
2023-07-27T13:47:20.384Z,28.52
2023-07-27T13:49:47.198Z,27.85
2023-07-27T13:52:15.267Z,26.77
2023-07-27T13:54:42.159Z,27.05
2023-07-27T13:57:08.928Z,24.73
2023-07-27T13:59:35.689Z,26.45
2023-07-27T14:02:02.566Z,26.48
2023-07-27T14:04:29.730Z,26.85
2023-07-27T14:06:57.102Z,28.02
2023-07-27T14:09:26.424Z,26.13
2023-07-27T14:11:55.542Z,25.73
2023-07-27T14:14:22.405Z,27.15
2023-07-27T14:16:49.286Z,26.15
2023-07-27T14:19:16.260Z,27.75
2023-07-27T14:21:43.112Z,24.50
2023-07-27T14:24:09.990Z,25.63
2023-07-27T14:26:46.348Z,22.73
2023-07-27T14:29:13.753Z,23.95
2023-07-27T14:31:40.556Z,23.50
2023-07-27T14:34:07.670Z,23.58
2023-07-27T14:36:34.536Z,22.95
2023-07-27T14:41:31.965Z,26.65
2023-07-27T14:43:59.288Z,25.00
2023-07-27T14:46:26.207Z,23.70
2023-07-27T14:48:53.087Z,25.50
2023-07-27T14:51:19.987Z,25.67
2023-07-27T14:53:47.160Z,24.48
2023-07-27T14:56:17.768Z,27.65
2023-07-27T14:58:47.839Z,26.15
2023-07-27T15:01:15.301Z,26.88
2023-07-27T15:03:52.078Z,25.75
2023-07-27T15:06:20.149Z,27.48
2023-07-27T15:08:47.190Z,24.95
2023-07-27T15:13:43.783Z,22.55
2023-07-27T15:16:10.674Z,22.88
2023-07-27T15:18:37.964Z,22.73
2023-07-27T15:21:05.477Z,25.10
2023-07-27T15:23:32.864Z,25.48
2023-07-27T15:26:05.154Z,25.15
2023-07-27T15:28:36.416Z,23.38
2023-07-27T15:31:06.961Z,25.33
2023-07-27T15:33:35.589Z,24.70
2023-07-27T15:36:02.579Z,22.85
2023-07-27T15:38:29.930Z,23.85
2023-07-27T15:40:57.109Z,24.23
2023-07-27T15:43:24.984Z,22.55
2023-07-27T15:45:51.879Z,25.95
2023-07-27T15:48:21.598Z,26.60
2023-07-27T15:50:48.785Z,24.15
2023-07-27T15:53:15.625Z,24.23
2023-07-27T15:55:43.460Z,23.92
2023-07-27T15:58:11.498Z,25.60
2023-07-27T16:00:41.458Z,25.70
2023-07-27T16:03:08.591Z,23.73
2023-07-27T16:05:41.583Z,23.35
2023-07-27T16:08:08.740Z,23.77
2023-07-27T16:10:46.389Z,25.42
2023-07-27T16:13:13.510Z,24.58
2023-07-27T16:15:40.483Z,24.98
2023-07-27T16:18:08.013Z,26.73
2023-07-27T16:20:34.951Z,27.27
2023-07-27T16:23:02.854Z,30.98
2023-07-27T16:25:29.645Z,30.65
2023-07-27T16:27:56.544Z,30.67
2023-07-27T16:30:23.448Z,35.17
2023-07-27T16:32:51.018Z,32.00
2023-07-27T16:35:17.938Z,30.50
2023-07-27T16:37:47.808Z,31.77
2023-07-27T16:40:15.322Z,33.78
2023-07-27T16:42:42.135Z,30.45
2023-07-27T16:45:09.664Z,29.25
2023-07-27T16:47:36.575Z,28.77
2023-07-27T16:50:03.580Z,28.48
2023-07-27T16:52:30.445Z,30.35
2023-07-27T16:54:57.282Z,27.35
2023-07-27T16:57:24.108Z,31.25
2023-07-27T16:59:50.896Z,30.05
2023-07-27T17:02:18.103Z,32.20
2023-07-27T17:04:45.686Z,30.50
2023-07-27T17:07:14.036Z,29.65
2023-07-27T17:09:40.833Z,29.00
2023-07-27T17:12:09.600Z,32.30
2023-07-27T17:14:37.775Z,32.53
2023-07-27T17:17:05.098Z,32.05
2023-07-27T17:19:31.927Z,31.23
2023-07-27T17:21:58.698Z,32.45
2023-07-27T17:24:25.582Z,33.67
2023-07-27T17:26:52.405Z,30.23
2023-07-27T17:29:19.159Z,34.85
2023-07-27T17:31:45.918Z,30.05
2023-07-27T17:34:12.700Z,29.85
2023-07-27T17:36:39.743Z,29.80
2023-07-27T17:39:08.602Z,31.75
2023-07-27T17:41:36.089Z,27.05
2023-07-27T17:44:03.473Z,27.83
2023-07-27T17:46:30.453Z,33.40
2023-07-27T17:48:57.256Z,25.13
2023-07-27T17:51:24.066Z,27.35
2023-07-27T17:53:51.002Z,26.30
2023-07-27T17:56:17.947Z,26.17
2023-07-27T17:58:44.732Z,26.73
2023-07-27T18:01:11.784Z,27.70
2023-07-27T18:03:38.963Z,25.80
2023-07-27T18:06:09.892Z,29.88
2023-07-27T18:08:38.242Z,31.98
2023-07-27T18:11:10.367Z,25.40
2023-07-27T18:13:37.606Z,26.52
2023-07-27T18:16:15.051Z,27.52
2023-07-27T18:18:42.542Z,26.45
2023-07-27T18:21:14.490Z,27.02
2023-07-27T18:26:19.288Z,27.55
2023-07-27T18:28:46.955Z,26.98
2023-07-27T18:31:13.920Z,26.35
2023-07-27T18:33:40.740Z,24.17
2023-07-27T18:36:16.437Z,28.80
2023-07-27T18:38:45.895Z,26.17
2023-07-27T18:41:17.682Z,28.08
2023-07-27T18:43:44.842Z,28.50
2023-07-27T18:46:21.302Z,28.35
2023-07-27T18:48:48.515Z,27.33
2023-07-27T18:51:15.513Z,29.92
2023-07-27T18:53:42.385Z,30.17
2023-07-27T18:56:09.391Z,30.95
2023-07-27T18:58:37.800Z,27.83
2023-07-27T19:01:08.494Z,29.30
2023-07-27T19:03:38.871Z,27.67
2023-07-27T19:06:06.341Z,27.85
2023-07-27T19:08:33.208Z,31.25
2023-07-27T19:11:06.309Z,27.42
2023-07-27T19:13:33.320Z,29.67
2023-07-27T19:16:02.944Z,29.25
2023-07-27T19:18:29.859Z,29.48
2023-07-27T19:20:56.806Z,33.65
2023-07-27T19:23:23.603Z,30.88
2023-07-27T19:25:50.417Z,28.67
2023-07-27T19:28:17.572Z,30.45
2023-07-27T19:30:46.155Z,29.38
2023-07-27T19:33:14.355Z,25.02
2023-07-27T19:35:42.514Z,31.98
2023-07-27T19:38:10.995Z,26.30
2023-07-27T19:40:37.896Z,28.05
2023-07-27T19:43:05.036Z,29.10
2023-07-27T19:45:32.052Z,27.70
2023-07-27T19:47:58.852Z,27.08
2023-07-27T19:50:25.629Z,28.98
2023-07-27T19:52:52.421Z,26.35
2023-07-27T19:55:19.258Z,31.30
2023-07-27T19:57:46.048Z,27.50
2023-07-27T20:00:13.184Z,25.88
2023-07-27T20:02:42.408Z,28.80
2023-07-27T20:05:10.003Z,28.25
2023-07-27T20:07:36.746Z,27.25
2023-07-27T20:10:04.192Z,29.02
2023-07-27T20:12:31.015Z,30.15
2023-07-27T20:14:57.787Z,27.88
2023-07-27T20:17:24.581Z,24.27
2023-07-27T20:19:52.046Z,24.33
2023-07-27T20:22:18.871Z,28.15
2023-07-27T20:24:45.855Z,26.27
2023-07-27T20:27:12.737Z,24.98
2023-07-27T20:29:39.484Z,29.73
2023-07-27T20:32:07.342Z,26.90
2023-07-27T20:34:34.258Z,26.98
2023-07-27T20:37:01.068Z,27.73
2023-07-27T20:39:27.912Z,26.48
2023-07-27T20:41:55.461Z,28.00
2023-07-27T20:44:22.749Z,30.75
2023-07-27T20:46:50.104Z,26.17
2023-07-27T20:49:16.971Z,27.80
2023-07-27T20:51:43.809Z,27.52
2023-07-27T20:54:10.726Z,29.40
2023-07-27T20:56:37.796Z,33.92
2023-07-27T20:59:04.850Z,27.52
2023-07-27T21:01:31.705Z,31.35
2023-07-27T21:03:58.672Z,27.77
2023-07-27T21:06:27.732Z,24.75
2023-07-27T21:08:55.025Z,22.80
2023-07-27T21:11:21.887Z,27.02
2023-07-27T21:13:48.766Z,23.52
2023-07-27T21:16:15.586Z,25.55
2023-07-27T21:18:43.914Z,24.10
2023-07-27T21:21:19.406Z,27.13
2023-07-27T21:23:47.696Z,26.77
2023-07-27T21:26:14.797Z,25.70
2023-07-27T21:28:41.636Z,27.20
2023-07-27T21:31:08.514Z,24.83
2023-07-27T21:33:35.441Z,26.50
2023-07-27T21:36:02.613Z,25.17
2023-07-27T21:38:29.435Z,29.90
2023-07-27T21:40:57.528Z,26.80
2023-07-27T21:43:25.270Z,26.50
2023-07-27T21:45:54.383Z,24.98
2023-07-27T21:48:22.273Z,27.40
2023-07-27T21:50:50.964Z,24.98
2023-07-27T21:53:18.160Z,24.10
2023-07-27T21:55:45.286Z,23.42
2023-07-27T21:58:12.260Z,27.52
2023-07-27T22:00:39.528Z,25.80
2023-07-27T22:03:06.400Z,24.42
2023-07-27T22:05:33.353Z,26.85
2023-07-27T22:08:00.155Z,22.95
2023-07-27T22:10:27.027Z,25.10
2023-07-27T22:12:53.845Z,25.58
2023-07-27T22:15:20.793Z,28.52
2023-07-27T22:17:49.630Z,25.70
2023-07-27T22:20:17.069Z,26.10
2023-07-27T22:22:43.924Z,27.17
2023-07-27T22:25:11.489Z,28.50
2023-07-27T22:27:38.760Z,27.42
2023-07-27T22:30:06.713Z,23.98
2023-07-27T22:32:33.556Z,27.35
2023-07-27T22:35:00.617Z,24.70
2023-07-27T22:37:27.452Z,26.40
2023-07-27T22:39:54.323Z,24.60
2023-07-27T22:42:21.088Z,28.65
2023-07-27T22:44:48.130Z,26.70
2023-07-27T22:47:15.236Z,31.02
2023-07-27T22:49:42.166Z,25.88
2023-07-27T22:52:09.031Z,28.13
2023-07-27T22:54:35.869Z,25.67
2023-07-27T22:57:02.736Z,27.58
2023-07-27T22:59:29.648Z,30.08
2023-07-27T23:01:58.800Z,27.60
2023-07-27T23:04:26.895Z,23.67
2023-07-27T23:06:56.020Z,27.98
2023-07-27T23:09:22.817Z,29.98
2023-07-27T23:11:50.961Z,34.58
2023-07-27T23:14:17.717Z,30.63
2023-07-27T23:16:44.540Z,27.92
2023-07-27T23:19:11.261Z,26.52
2023-07-27T23:21:38.060Z,25.65
2023-07-27T23:24:05.262Z,27.98
2023-07-27T23:26:32.016Z,27.20
2023-07-27T23:28:58.792Z,27.90
2023-07-27T23:31:25.592Z,28.90
2023-07-27T23:33:52.393Z,27.02
2023-07-27T23:36:19.199Z,27.80
2023-07-27T23:38:46.014Z,28.77
2023-07-27T23:41:12.802Z,28.15
2023-07-27T23:43:39.880Z,26.67
2023-07-27T23:46:06.728Z,28.50
2023-07-27T23:48:33.521Z,29.33
2023-07-27T23:51:00.532Z,24.77
2023-07-27T23:53:27.500Z,27.88
2023-07-27T23:55:54.266Z,28.15
2023-07-27T23:58:22.242Z,29.45
